Time;durP1;ratioP1;P1;durP2;ratioP2;P2;SDS_P1;SDS_P2;PMS_P1;PMS_P2;Temp;Humidity;BMP_temperature;BMP_pressure;BME280_temperature;BME280_humidity;BME280_pressure;Samples;Min_cycle;Max_cycle;Signal;HPM_P1;HPM_P2
2022/12/22 03:27:50;;;;;;;37.33;20.23;;;8.40;99.90;;;;;;5134304;28;20086;-76
2022/12/22 03:30:15;;;;;;;32.88;18.50;;;8.30;99.90;;;;;;5134172;28;20081;-76
2022/12/22 03:32:41;;;;;;;32.85;18.75;;;8.30;99.90;;;;;;5134203;28;20046;-76
2022/12/22 03:35:07;;;;;;;32.92;19.33;;;8.40;99.90;;;;;;5134254;28;20103;-76
2022/12/22 03:37:33;;;;;;;42.95;34.38;;;8.40;99.90;;;;;;5134148;28;20383;-76
2022/12/22 03:39:58;;;;;;;35.55;19.67;;;8.40;99.90;;;;;;5133983;28;20051;-76
2022/12/22 03:47:53;;;;;;;37.80;20.35;;;8.40;99.90;;;;;;5138444;27;20099;-75
2022/12/22 03:50:18;;;;;;;33.95;19.58;;;8.40;99.90;;;;;;5138137;27;20090;-75
2022/12/22 03:52:44;;;;;;;36.67;20.60;;;8.40;99.90;;;;;;5137905;27;20118;-75
2022/12/22 03:55:10;;;;;;;37.03;20.95;;;8.40;99.90;;;;;;5138000;27;20051;-76
2022/12/22 03:57:35;;;;;;;33.10;20.40;;;8.40;99.90;;;;;;5137572;27;20538;-76
2022/12/22 04:00:01;;;;;;;39.15;19.65;;;8.40;99.90;;;;;;5137743;27;20557;-76
2022/12/22 04:02:27;;;;;;;34.03;19.17;;;8.40;99.90;;;;;;5137750;27;20050;-75
2022/12/22 04:04:52;;;;;;;33.67;19.33;;;8.40;99.90;;;;;;5137782;27;20395;-75
2022/12/22 04:07:18;;;;;;;54.00;37.55;;;8.50;99.90;;;;;;5137715;27;20066;-76
2022/12/22 04:12:53;;;;;;;35.85;19.95;;;8.40;99.90;;;;;;5137579;27;20043;-76
2022/12/22 04:15:13;;;;;;;33.63;19.92;;;8.40;99.90;;;;;;5137769;27;20082;-76
2022/12/22 04:17:39;;;;;;;32.13;18.65;;;8.40;99.90;;;;;;5137668;27;20497;-76
2022/12/22 04:20:05;;;;;;;33.25;19.35;;;8.40;99.90;;;;;;5137340;27;20435;-75
2022/12/22 04:22:31;;;;;;;38.75;20.77;;;8.40;99.90;;;;;;5137400;27;20099;-75
2022/12/22 04:24:56;;;;;;;34.30;19.23;;;8.40;99.90;;;;;;5137427;27;20039;-76
2022/12/22 04:27:22;;;;;;;31.88;18.83;;;8.40;99.90;;;;;;5137000;27;20043;-76
2022/12/22 04:29:47;;;;;;;34.88;19.42;;;8.40;99.90;;;;;;5137182;27;20082;-75
2022/12/22 04:32:13;;;;;;;35.95;18.98;;;8.40;99.90;;;;;;5137366;27;20387;-76
2022/12/22 04:34:39;;;;;;;33.75;19.42;;;8.30;99.90;;;;;;5137315;27;20135;-76
2022/12/22 04:37:04;;;;;;;32.25;19.60;;;8.40;99.90;;;;;;5137125;27;20046;-75
2022/12/22 04:39:30;;;;;;;32.90;19.23;;;8.40;99.90;;;;;;5136962;27;20047;-75
2022/12/22 04:41:55;;;;;;;35.17;19.83;;;8.50;99.90;;;;;;5136980;27;20391;-75
2022/12/22 04:44:21;;;;;;;31.75;19.55;;;8.40;99.90;;;;;;5136947;27;20045;-75
2022/12/22 04:46:46;;;;;;;29.58;19.08;;;8.40;99.90;;;;;;5137022;27;20105;-75
2022/12/22 04:49:12;;;;;;;31.48;20.00;;;8.50;99.90;;;;;;5136858;27;20041;-75
2022/12/22 04:51:37;;;;;;;36.72;19.10;;;8.40;99.90;;;;;;5136810;27;20039;-76
2022/12/22 04:54:03;;;;;;;34.60;20.38;;;8.40;99.90;;;;;;5136394;27;20046;-75
2022/12/22 04:56:29;;;;;;;30.55;19.10;;;8.40;99.90;;;;;;5136257;27;20047;-75
2022/12/22 04:58:54;;;;;;;28.45;18.55;;;9.10;99.90;;;;;;5136521;27;20095;-75
2022/12/22 05:01:20;;;;;;;31.25;18.45;;;8.40;99.90;;;;;;5136643;27;20043;-76
2022/12/22 05:03:45;;;;;;;35.35;19.77;;;8.40;99.90;;;;;;5136514;27;20035;-76
2022/12/22 05:06:11;;;;;;;31.17;19.38;;;8.50;99.90;;;;;;5136431;27;20123;-76
2022/12/22 05:08:37;;;;;;;29.30;18.52;;;8.40;99.90;;;;;;5136112;27;20035;-75
2022/12/22 05:11:03;;;;;;;32.72;19.95;;;8.50;99.90;;;;;;5136859;27;20436;-75
2022/12/22 05:13:30;;;;;;;32.58;18.88;;;8.50;99.90;;;;;;5136411;27;20039;-75
2022/12/22 05:16:01;;;;;;;;;;;8.70;99.90;;;;;;5136722;27;20554;-75
2022/12/22 05:18:27;;;;;;;34.05;20.23;;;8.40;99.90;;;;;;5136423;27;20373;-75
2022/12/22 05:20:52;;;;;;;31.85;19.50;;;8.40;99.90;;;;;;5136144;27;20047;-75
2022/12/22 05:23:18;;;;;;;29.83;18.73;;;8.50;99.90;;;;;;5136066;27;20047;-76
2022/12/22 05:25:43;;;;;;;31.52;18.52;;;9.00;99.90;;;;;;5136069;27;20039;-75
2022/12/22 05:28:09;;;;;;;31.80;19.13;;;8.50;99.90;;;;;;5135998;27;20043;-75
2022/12/22 05:30:34;;;;;;;37.55;32.47;;;8.50;99.90;;;;;;5136398;27;20042;-75
2022/12/22 05:33:00;;;;;;;29.25;18.15;;;8.50;99.90;;;;;;5136168;27;20035;-75
2022/12/22 05:35:26;;;;;;;27.33;18.02;;;8.50;99.90;;;;;;5135882;27;20043;-76
2022/12/22 05:37:51;;;;;;;33.55;19.33;;;8.50;99.90;;;;;;5135960;27;20058;-75
2022/12/22 05:40:17;;;;;;;33.67;19.52;;;8.50;99.90;;;;;;5136653;27;20485;-75
2022/12/22 05:42:42;;;;;;;33.85;19.42;;;8.50;99.90;;;;;;5135957;27;20039;-75
2022/12/22 05:45:15;;;;;;;41.85;21.65;;;8.50;99.90;;;;;;5135939;27;20100;-76
2022/12/22 05:47:43;;;;;;;34.90;18.98;;;8.50;99.90;;;;;;5136024;27;20051;-76
2022/12/22 05:50:10;;;;;;;33.80;18.77;;;8.50;99.90;;;;;;5135561;27;20100;-76
2022/12/22 05:52:36;;;;;;;33.42;19.67;;;8.50;99.90;;;;;;5135525;27;20134;-77
2022/12/22 05:55:02;;;;;;;39.97;19.63;;;8.90;99.90;;;;;;5135529;27;20079;-75
2022/12/22 05:57:28;;;;;;;32.03;18.73;;;8.50;99.90;;;;;;5135198;27;20043;-75
2022/12/22 05:59:53;;;;;;;32.83;19.20;;;8.50;99.90;;;;;;5135390;27;20049;-75
2022/12/22 06:02:19;;;;;;;34.55;19.17;;;8.40;99.90;;;;;;5135447;27;20046;-75
2022/12/22 06:04:45;;;;;;;34.38;18.88;;;8.50;99.90;;;;;;5135477;27;20479;-75
2022/12/22 06:07:10;;;;;;;32.63;18.50;;;8.70;99.90;;;;;;5135188;27;20092;-74
2022/12/22 06:09:36;;;;;;;39.03;18.60;;;8.40;99.90;;;;;;5134165;27;20376;-75
2022/12/22 06:12:02;;;;;;;31.35;18.73;;;8.40;99.90;;;;;;5135205;27;20035;-75
2022/12/22 06:14:27;;;;;;;30.15;18.75;;;8.40;99.90;;;;;;5135167;27;20086;-74
2022/12/22 06:16:53;;;;;;;33.63;18.60;;;8.40;99.90;;;;;;5135060;27;20542;-76
2022/12/22 06:19:18;;;;;;;34.83;19.08;;;8.40;99.90;;;;;;5134819;27;20054;-75
2022/12/22 06:21:44;;;;;;;62.47;37.53;;;8.70;99.90;;;;;;5135089;27;20175;-74
2022/12/22 06:24:09;;;;;;;41.40;20.65;;;8.40;99.90;;;;;;5135058;27;20053;-74
2022/12/22 06:26:35;;;;;;;35.40;19.48;;;8.40;99.90;;;;;;5134947;27;20035;-74
2022/12/22 06:29:01;;;;;;;82.35;43.60;;;8.60;99.90;;;;;;5135401;27;20031;-73
2022/12/22 06:31:26;;;;;;;38.28;19.85;;;8.40;99.90;;;;;;5135338;27;20047;-75
2022/12/22 06:33:52;;;;;;;49.88;34.92;;;8.40;99.90;;;;;;5135334;27;20043;-73
2022/12/22 06:36:17;;;;;;;36.67;19.73;;;8.40;99.90;;;;;;5116584;27;20043;-75
2022/12/22 06:38:43;;;;;;;74.30;39.50;;;8.40;99.90;;;;;;5135175;27;20554;-75
2022/12/22 06:41:09;;;;;;;43.13;19.77;;;8.40;99.90;;;;;;5135074;27;20051;-75
2022/12/22 06:43:34;;;;;;;31.88;18.08;;;8.50;99.90;;;;;;5134747;27;20118;-74
2022/12/22 06:46:00;;;;;;;33.60;18.23;;;8.40;99.90;;;;;;5134542;27;20059;-74
2022/12/22 06:48:25;;;;;;;29.95;17.02;;;8.40;99.90;;;;;;5134755;27;20078;-74
2022/12/22 06:50:55;;;;;;;52.85;32.25;;;8.70;99.90;;;;;;5135405;27;20500;-75
2022/12/22 06:53:21;;;;;;;40.20;19.88;;;9.10;99.90;;;;;;5135459;27;20047;-74
2022/12/22 06:55:46;;;;;;;36.75;18.92;;;8.50;99.90;;;;;;5136936;27;20430;-74
2022/12/22 06:58:12;;;;;;;47.35;33.22;;;8.50;99.90;;;;;;5137788;27;20046;-75
2022/12/22 07:00:38;;;;;;;39.63;18.65;;;8.60;99.90;;;;;;5136724;28;20043;-74
2022/12/22 07:03:03;;;;;;;34.35;17.88;;;8.50;99.90;;;;;;5137612;28;20058;-75
2022/12/22 07:05:30;;;;;;;32.50;16.23;;;8.90;99.90;;;;;;5135641;28;20376;-75
2022/12/22 07:07:56;;;;;;;34.38;18.17;;;8.50;99.90;;;;;;5133985;28;20039;-76
2022/12/22 07:10:56;;;;;;;38.55;18.10;;;8.50;99.90;;;;;;5134400;28;20047;-75
2022/12/22 07:13:18;;;;;;;40.28;19.13;;;9.10;99.90;;;;;;5134319;28;20459;-77
2022/12/22 07:15:45;;;;;;;36.10;17.95;;;9.20;99.90;;;;;;5134436;28;20051;-75
2022/12/22 07:18:11;;;;;;;41.13;18.10;;;8.50;99.90;;;;;;5134182;28;20039;-77
2022/12/22 07:20:36;;;;;;;39.10;16.90;;;8.50;99.90;;;;;;5136904;27;20039;-74
2022/12/22 07:23:02;;;;;;;37.55;17.60;;;8.40;99.90;;;;;;5142461;27;20046;-72
2022/12/22 07:25:27;;;;;;;39.10;17.65;;;8.50;99.90;;;;;;5140765;27;20415;-76
2022/12/22 07:27:53;;;;;;;34.15;16.55;;;8.40;99.90;;;;;;5155387;27;20027;-76
2022/12/22 07:30:18;;;;;;;42.65;18.17;;;8.80;99.90;;;;;;5147670;27;20050;-78
2022/12/22 07:32:44;;;;;;;39.67;16.55;;;8.40;99.90;;;;;;5147825;27;20082;-77
2022/12/22 07:35:09;;;;;;;41.78;17.50;;;8.40;99.90;;;;;;5144122;27;20043;-76
2022/12/22 07:37:35;;;;;;;43.55;17.33;;;8.40;99.90;;;;;;5138814;27;20042;-77
2022/12/22 07:40:01;;;;;;;39.38;16.63;;;8.40;99.90;;;;;;5138484;27;20079;-78
2022/12/22 07:42:44;;;;;;;35.60;16.17;;;8.90;99.90;;;;;;5138149;27;20092;-78
2022/12/22 07:45:18;;;;;;;35.25;16.73;;;8.30;99.90;;;;;;5137800;27;20550;-77
2022/12/22 07:47:45;;;;;;;37.38;17.02;;;8.50;99.90;;;;;;5137462;27;20051;-77
2022/12/22 07:50:31;;;;;;;40.35;16.23;;;8.20;99.90;;;;;;5137814;27;20512;-76
2022/12/22 07:52:58;;;;;;;37.83;17.63;;;8.80;99.90;;;;;;5138480;27;20043;-76
2022/12/22 07:55:24;;;;;;;;;;;8.20;99.90;;;;;;5138966;27;20130;-76
2022/12/22 07:57:51;;;;;;;34.10;15.88;;;8.10;99.90;;;;;;5138525;27;19927;-76
2022/12/22 08:00:18;;;;;;;33.90;15.13;;;8.00;99.90;;;;;;5138590;27;20082;-77
2022/12/22 08:02:55;;;;;;;32.10;15.25;;;7.90;99.90;;;;;;5138333;27;20479;-77
2022/12/22 08:05:22;;;;;;;36.75;16.35;;;7.90;99.90;;;;;;5138381;27;20047;-76
2022/12/22 08:07:49;;;;;;;32.83;15.48;;;7.80;99.90;;;;;;5137493;27;20051;-76
2022/12/22 08:10:15;;;;;;;41.63;16.45;;;7.80;99.90;;;;;;5119341;27;20043;-77
2022/12/22 08:12:40;;;;;;;31.23;15.15;;;7.70;99.90;;;;;;5137196;27;20050;-80
2022/12/22 08:15:07;;;;;;;33.83;15.38;;;7.60;99.90;;;;;;5137480;27;20134;-81
2022/12/22 08:17:34;;;;;;;28.55;13.75;;;7.60;99.90;;;;;;5137356;27;20107;-77
2022/12/22 08:19:59;;;;;;;30.27;15.18;;;7.50;99.90;;;;;;5119079;27;20499;-76
2022/12/22 08:22:25;;;;;;;31.55;15.07;;;7.50;99.90;;;;;;5137498;27;20103;-76
2022/12/22 08:24:52;;;;;;;32.55;15.20;;;7.40;99.90;;;;;;5137244;27;20046;-76
2022/12/22 08:27:23;;;;;;;32.67;15.43;;;7.30;99.90;;;;;;5137043;27;20055;-76
2022/12/22 08:29:54;;;;;;;40.75;16.13;;;7.30;99.90;;;;;;5137236;27;20043;-76
2022/12/22 08:32:20;;;;;;;35.25;16.15;;;7.80;99.90;;;;;;5136356;27;20514;-76
2022/12/22 08:34:49;;;;;;;39.17;16.30;;;7.30;99.90;;;;;;5137102;27;20108;-76
2022/12/22 08:37:17;;;;;;;53.10;18.00;;;7.30;99.90;;;;;;5137546;27;20043;-76
2022/12/22 08:39:47;;;;;;;49.97;18.13;;;7.30;99.90;;;;;;5137393;27;20092;-77
2022/12/22 08:42:17;;;;;;;51.53;17.50;;;7.30;99.90;;;;;;5137101;27;20091;-76
2022/12/22 08:44:44;;;;;;;45.08;16.30;;;7.40;99.90;;;;;;5137164;27;20043;-76
2022/12/22 08:47:10;;;;;;;49.88;18.00;;;7.50;99.90;;;;;;5136932;27;20047;-76
2022/12/22 08:49:36;;;;;;;116.57;40.17;;;7.50;99.90;;;;;;5118524;27;20083;-76
2022/12/22 08:52:02;;;;;;;50.75;17.73;;;7.50;99.90;;;;;;5137092;27;20074;-76
2022/12/22 08:54:28;;;;;;;50.50;15.50;;;7.60;99.90;;;;;;5136730;27;20099;-76
2022/12/22 08:56:53;;;;;;;48.03;16.95;;;7.60;99.90;;;;;;5136869;27;20051;-77
2022/12/22 08:59:19;;;;;;;65.88;31.02;;;7.60;99.90;;;;;;5136748;27;20123;-77
2022/12/22 09:01:49;;;;;;;52.90;18.60;;;8.10;99.90;;;;;;5137146;27;20061;-77
2022/12/22 09:04:17;;;;;;;43.05;15.05;;;7.70;99.90;;;;;;5136642;27;20093;-77
2022/12/22 09:06:43;;;;;;;45.00;16.13;;;7.70;99.90;;;;;;5136523;27;20364;-79
2022/12/22 09:09:10;;;;;;;40.10;14.60;;;7.70;99.90;;;;;;5136451;27;20047;-78
2022/12/22 09:11:37;;;;;;;41.22;13.95;;;8.40;99.90;;;;;;5119064;27;20039;-75
2022/12/22 09:14:03;;;;;;;35.50;13.88;;;7.70;99.90;;;;;;5136431;27;20043;-76
2022/12/22 09:16:30;;;;;;;34.85;14.07;;;7.70;99.90;;;;;;5136354;27;20047;-73
2022/12/22 09:18:56;;;;;;;31.02;13.75;;;7.70;99.90;;;;;;5136273;27;20060;-73
2022/12/22 09:21:24;;;;;;;32.05;12.95;;;7.60;99.90;;;;;;5136227;27;20122;-73
2022/12/22 09:23:49;;;;;;;36.42;12.43;;;7.60;99.90;;;;;;5136084;27;20057;-74
2022/12/22 09:26:17;;;;;;;31.10;13.43;;;7.60;99.90;;;;;;5136426;27;20043;-73
2022/12/22 09:28:43;;;;;;;25.55;11.55;;;7.60;99.90;;;;;;5136256;27;20467;-75
2022/12/22 09:31:10;;;;;;;38.00;23.00;;;7.50;99.90;;;;;;5136115;27;20092;-75
2022/12/22 09:33:36;;;;;;;32.30;12.55;;;8.00;99.90;;;;;;5135974;27;20043;-74
2022/12/22 09:36:11;;;;;;;31.88;12.68;;;8.30;99.90;;;;;;5135911;27;20049;-75
2022/12/22 09:38:37;;;;;;;26.88;11.27;;;7.50;99.90;;;;;;5135826;27;20061;-74
2022/12/22 09:41:30;;;;;;;34.85;19.65;;;7.40;99.90;;;;;;5135829;27;20043;-75
2022/12/22 09:44:00;;;;;;;28.48;11.10;;;7.30;99.90;;;;;;5135936;27;20047;-75
2022/12/22 09:46:29;;;;;;;28.83;10.90;;;7.30;99.90;;;;;;5135864;27;20051;-75
2022/12/22 09:48:54;;;;;;;29.23;11.27;;;8.10;99.90;;;;;;5135533;27;20046;-75
2022/12/22 09:51:22;;;;;;;26.27;11.38;;;7.30;99.90;;;;;;5135500;27;20043;-75
2022/12/22 09:53:52;;;;;;;28.90;11.85;;;7.70;99.90;;;;;;5135594;27;20090;-75
2022/12/22 09:56:18;;;;;;;27.55;11.23;;;7.20;99.90;;;;;;5135560;27;20050;-74
2022/12/22 09:58:46;;;;;;;34.13;12.15;;;7.20;99.90;;;;;;5133975;27;20047;-76
2022/12/22 10:01:45;;;;;;;31.65;12.13;;;7.30;99.90;;;;;;5133962;27;20051;-74
2022/12/22 10:04:25;;;;;;;26.80;11.57;;;7.30;99.90;;;;;;5134806;27;20080;-77
2022/12/22 10:07:01;;;;;;;27.10;10.80;;;7.30;99.90;;;;;;5135665;27;20435;-74
2022/12/22 10:09:30;;;;;;;27.05;10.32;;;7.30;99.90;;;;;;5135213;27;20051;-74
2022/12/22 10:12:00;;;;;;;31.13;11.38;;;7.70;99.90;;;;;;5117109;27;20043;-75
2022/12/22 10:14:34;;;;;;;25.52;10.23;;;7.40;99.90;;;;;;5134941;27;20043;-75
2022/12/22 10:17:27;;;;;;;30.85;10.88;;;7.40;99.90;;;;;;5135446;27;20055;-74
2022/12/22 10:20:06;;;;;;;28.38;10.73;;;7.30;99.90;;;;;;5131271;27;20090;-74
2022/12/22 10:22:35;;;;;;;26.70;10.48;;;7.40;99.90;;;;;;5135029;27;20043;-73
2022/12/22 10:25:03;;;;;;;27.63;10.00;;;7.80;99.90;;;;;;5134881;27;20043;-73
2022/12/22 10:27:33;;;;;;;24.35;9.75;;;7.40;99.90;;;;;;5134904;27;20039;-74
2022/12/22 10:30:23;;;;;;;23.02;8.98;;;7.50;99.90;;;;;;5134884;27;20047;-73
2022/12/22 10:33:02;;;;;;;21.98;9.70;;;7.50;99.90;;;;;;5133237;27;20047;-73
2022/12/22 10:35:55;;;;;;;19.60;8.30;;;7.50;99.90;;;;;;5134377;27;20100;-73
2022/12/22 10:38:25;;;;;;;28.02;9.80;;;7.50;99.90;;;;;;5134606;27;20043;-74
2022/12/22 10:40:56;;;;;;;27.58;10.48;;;7.60;99.90;;;;;;5116088;27;20482;-73
2022/12/22 10:43:33;;;;;;;25.50;11.27;;;7.60;99.90;;;;;;5134661;27;20047;-74
2022/12/22 10:45:59;;;;;;;;;;;8.40;99.90;;;;;;5134912;27;20157;-76
2022/12/22 10:48:32;;;;;;;22.75;9.23;;;7.60;99.90;;;;;;5134508;27;19926;-74
2022/12/22 10:50:59;;;;;;;19.75;8.73;;;7.60;99.90;;;;;;5134563;27;20092;-73
2022/12/22 10:53:42;;;;;;;25.30;9.60;;;7.60;99.90;;;;;;5134220;27;20134;-75
2022/12/22 10:56:16;;;;;;;19.52;8.57;;;7.70;99.90;;;;;;5133884;27;20047;-74
2022/12/22 10:58:48;;;;;;;21.30;8.50;;;7.60;99.90;;;;;;5134058;27;20074;-78
2022/12/22 11:01:23;;;;;;;19.27;9.07;;;7.80;99.90;;;;;;5137115;28;20078;-75
2022/12/22 11:03:49;;;;;;;20.63;9.02;;;7.60;99.90;;;;;;5134448;28;20430;-75
2022/12/22 11:06:14;;;;;;;24.65;10.07;;;7.80;99.90;;;;;;5138789;28;20054;-75
2022/12/22 11:08:40;;;;;;;25.13;13.80;;;7.70;99.90;;;;;;5126074;27;20035;-75
2022/12/22 11:11:14;;;;;;;21.35;9.05;;;8.50;99.90;;;;;;5138199;28;20451;-75
2022/12/22 11:13:57;;;;;;;20.52;8.57;;;7.80;99.90;;;;;;5136863;28;20043;-76
2022/12/22 11:16:50;;;;;;;21.10;7.80;;;8.00;99.90;;;;;;5134202;28;20043;-74
2022/12/22 11:19:39;;;;;;;15.13;7.32;;;8.00;99.90;;;;;;5134126;28;20475;-74
2022/12/22 11:22:30;;;;;;;17.83;7.93;;;8.10;99.90;;;;;;5134130;28;20432;-72
2022/12/22 11:25:25;;;;;;;17.60;7.93;;;8.20;99.90;;;;;;5133869;28;20047;-73
2022/12/22 11:28:21;;;;;;;16.83;7.38;;;8.20;99.90;;;;;;5094255;28;20061;-76
2022/12/22 11:31:21;;;;;;;11.20;6.72;;;8.20;99.90;;;;;;5134206;28;20047;-74
2022/12/22 11:34:01;;;;;;;12.93;6.35;;;8.20;99.90;;;;;;5134087;28;20047;-75
2022/12/22 11:36:47;;;;;;;10.82;6.97;;;8.90;99.90;;;;;;5134126;28;20107;-74
2022/12/22 11:39:21;;;;;;;10.50;6.25;;;8.10;99.90;;;;;;5133777;28;20544;-73
2022/12/22 11:42:20;;;;;;;17.92;6.80;;;8.10;99.90;;;;;;5133711;28;20064;-71
2022/12/22 11:45:08;;;;;;;13.50;6.40;;;8.10;99.90;;;;;;5134007;28;20074;-74
2022/12/22 11:47:38;;;;;;;13.38;6.28;;;8.10;99.90;;;;;;5132417;28;20090;-75
2022/12/22 11:50:21;;;;;;;13.45;6.20;;;8.00;99.90;;;;;;5133709;28;20097;-76
2022/12/22 11:52:59;;;;;;;17.63;7.22;;;7.90;99.90;;;;;;5133828;28;20051;-74
2022/12/22 11:55:37;;;;;;;15.15;6.47;;;7.90;99.90;;;;;;5133195;28;20035;-75
2022/12/22 11:58:25;;;;;;;14.13;6.82;;;7.90;99.90;;;;;;5115558;28;20394;-73
2022/12/22 12:01:13;;;;;;;14.00;6.90;;;7.90;99.90;;;;;;5133763;28;20096;-75
2022/12/22 12:04:09;;;;;;;15.40;6.55;;;7.90;99.90;;;;;;5081554;28;20682;-74
2022/12/22 12:06:34;;;;;;;15.27;7.03;;;8.00;99.90;;;;;;5133764;27;20049;-75
2022/12/22 12:09:38;;;;;;;15.55;7.18;;;8.00;99.90;;;;;;5137315;27;20134;-73
2022/12/22 12:12:14;;;;;;;15.35;7.10;;;8.10;99.90;;;;;;5117354;27;20058;-73
2022/12/22 12:15:17;;;;;;;20.63;7.30;;;8.10;99.90;;;;;;5135585;27;20054;-73
2022/12/22 12:18:11;;;;;;;15.75;6.70;;;8.10;99.90;;;;;;5135709;27;20096;-73
2022/12/22 12:20:46;;;;;;;17.80;7.72;;;8.10;99.90;;;;;;5135534;27;20134;-75
2022/12/22 12:23:21;;;;;;;18.70;7.28;;;8.20;99.90;;;;;;5135854;27;20050;-74
2022/12/22 12:26:07;;;;;;;17.25;7.22;;;8.20;99.90;;;;;;5136534;27;20054;-74
2022/12/22 12:28:45;;;;;;;16.83;7.70;;;8.20;99.90;;;;;;5137095;27;20500;-74
2022/12/22 12:31:14;;;;;;;16.48;7.28;;;8.20;99.90;;;;;;5137192;27;20047;-74
2022/12/22 12:33:50;;;;;;;15.55;6.95;;;8.20;99.90;;;;;;5136964;27;20043;-74
2022/12/22 12:36:15;;;;;;;19.75;7.30;;;8.30;99.90;;;;;;5136770;27;20479;-74
2022/12/22 12:39:11;;;;;;;14.18;6.88;;;8.30;99.90;;;;;;5136706;27;20050;-75
2022/12/22 12:41:47;;;;;;;15.80;6.75;;;8.30;99.90;;;;;;5136674;27;20047;-74
2022/12/22 12:44:17;;;;;;;18.27;7.07;;;8.30;99.90;;;;;;5136838;27;20099;-75
2022/12/22 12:46:49;;;;;;;15.15;6.55;;;8.40;99.90;;;;;;5136585;27;20491;-74
2022/12/22 12:49:33;;;;;;;19.15;6.97;;;8.30;99.90;;;;;;5136408;27;20552;-75
2022/12/22 12:52:02;;;;;;;15.13;6.57;;;8.40;99.90;;;;;;5136614;27;20126;-74
2022/12/22 12:54:28;;;;;;;20.13;7.15;;;8.30;99.90;;;;;;5136529;27;20047;-74
2022/12/22 12:57:06;;;;;;;15.65;6.53;;;8.40;99.90;;;;;;5118360;27;20131;-74
2022/12/22 12:59:40;;;;;;;14.75;7.80;;;9.00;99.90;;;;;;5136409;27;20046;-75
2022/12/22 13:02:25;;;;;;;17.73;7.25;;;8.40;99.90;;;;;;5136322;27;20045;-75
2022/12/22 13:05:10;;;;;;;17.33;6.90;;;8.70;99.90;;;;;;5136345;27;20047;-74
2022/12/22 13:08:09;;;;;;;20.17;7.40;;;8.50;99.90;;;;;;5136259;27;20154;-74
2022/12/22 13:10:40;;;;;;;16.05;7.10;;;8.50;99.90;;;;;;5136287;27;20039;-74
2022/12/22 13:13:33;;;;;;;18.58;7.22;;;8.60;99.90;;;;;;5136116;27;20513;-74
2022/12/22 13:16:02;;;;;;;21.17;7.70;;;8.60;99.90;;;;;;5136078;27;20447;-74
2022/12/22 13:18:33;;;;;;;21.10;7.22;;;8.60;99.90;;;;;;5135870;27;20047;-74
2022/12/22 13:21:05;;;;;;;21.42;7.28;;;8.60;99.90;;;;;;5117690;27;20046;-74
2022/12/22 13:23:44;;;;;;;18.33;7.95;;;8.70;99.90;;;;;;5135858;27;20046;-73
2022/12/22 13:26:12;;;;;;;17.10;7.43;;;8.70;99.90;;;;;;5135940;27;20035;-75
2022/12/22 13:28:41;;;;;;;18.23;7.55;;;8.70;99.90;;;;;;5135765;27;20039;-75
2022/12/22 13:31:21;;;;;;;13.77;7.13;;;8.70;99.90;;;;;;5135951;27;20035;-75
2022/12/22 13:33:59;;;;;;;18.98;6.53;;;8.80;99.90;;;;;;5135958;27;20051;-74
2022/12/22 13:36:27;;;;;;;19.60;6.88;;;9.30;99.90;;;;;;5135692;27;20047;-75
2022/12/22 13:39:13;;;;;;;15.38;6.57;;;8.80;99.90;;;;;;5135613;27;20066;-75
2022/12/22 13:41:44;;;;;;;16.50;7.00;;;8.80;99.90;;;;;;5135696;27;20129;-73
2022/12/22 13:44:27;;;;;;;15.27;6.55;;;8.80;99.90;;;;;;5135633;27;20082;-74
2022/12/22 13:46:53;;;;;;;15.82;6.72;;;8.80;99.90;;;;;;5135213;27;20059;-74
2022/12/22 13:49:22;;;;;;;16.35;6.50;;;8.80;99.90;;;;;;5135314;27;20043;-74
2022/12/22 13:51:48;;;;;;;16.00;6.05;;;8.80;99.90;;;;;;5135161;27;20042;-74
2022/12/22 13:54:21;;;;;;;17.52;6.45;;;8.80;99.90;;;;;;5135379;27;20039;-73
2022/12/22 13:56:51;;;;;;;13.93;5.25;;;8.80;99.90;;;;;;5135567;27;20045;-75
2022/12/22 13:59:19;;;;;;;13.63;5.15;;;8.80;99.90;;;;;;5135390;27;20035;-74
2022/12/22 14:01:50;;;;;;;13.10;4.18;;;8.80;99.90;;;;;;5135204;27;20119;-74
2022/12/22 14:04:15;;;;;;;12.70;5.15;;;8.80;99.90;;;;;;5135264;27;20043;-71
2022/12/22 14:06:41;;;;;;;8.57;4.38;;;8.70;99.90;;;;;;5134980;27;20105;-74
2022/12/22 14:09:19;;;;;;;10.90;4.45;;;8.70;99.90;;;;;;5135138;27;20497;-73
2022/12/22 14:11:47;;;;;;;7.25;4.22;;;8.70;99.90;;;;;;5135169;27;20042;-74
2022/12/22 14:14:17;;;;;;;11.82;4.50;;;8.60;99.90;;;;;;5134920;27;20070;-75
2022/12/22 14:16:46;;;;;;;15.60;4.55;;;9.00;99.90;;;;;;5135313;27;20089;-73
2022/12/22 14:19:13;;;;;;;12.60;5.40;;;9.20;99.90;;;;;;5135023;27;20051;-73
2022/12/22 14:21:41;;;;;;;15.50;5.03;;;8.50;99.90;;;;;;5134841;27;20042;-75
2022/12/22 14:24:15;;;;;;;15.43;5.35;;;8.40;99.90;;;;;;5134673;27;20039;-73
2022/12/22 14:26:41;;;;;;;11.63;4.95;;;8.40;99.90;;;;;;5134593;27;20458;-74
2022/12/22 14:29:14;;;;;;;12.95;5.43;;;8.30;99.90;;;;;;5134411;27;20115;-74
2022/12/22 14:31:52;;;;;;;13.98;6.15;;;8.60;99.90;;;;;;5134509;27;20087;-72
2022/12/22 14:34:33;;;;;;;16.25;6.43;;;8.20;99.90;;;;;;5134488;27;20065;-74
2022/12/22 14:37:00;;;;;;;12.00;5.28;;;8.20;99.90;;;;;;5134800;27;20049;-74
2022/12/22 14:39:31;;;;;;;14.02;4.90;;;8.10;99.90;;;;;;5134541;27;20395;-75
2022/12/22 14:42:00;;;;;;;13.48;5.57;;;8.10;99.90;;;;;;5134886;27;20130;-74
2022/12/22 14:44:33;;;;;;;16.92;5.85;;;8.70;99.90;;;;;;5134644;27;20080;-75
2022/12/22 14:47:10;;;;;;;11.82;5.65;;;8.00;99.90;;;;;;5134717;27;20051;-75
2022/12/22 14:50:00;;;;;;;14.20;5.43;;;8.10;99.90;;;;;;5134367;27;20134;-73
2022/12/22 14:52:49;;;;;;;8.70;4.97;;;8.00;99.90;;;;;;5134483;27;20062;-73
2022/12/22 14:55:21;;;;;;;13.40;5.30;;;7.90;99.90;;;;;;5134383;27;20058;-75
2022/12/22 14:57:59;;;;;;;13.05;5.47;;;7.90;99.90;;;;;;5134111;27;20047;-77
2022/12/22 15:00:30;;;;;;;16.73;6.07;;;7.90;99.90;;;;;;5134132;27;20054;-75
2022/12/22 15:03:00;;;;;;;10.98;4.88;;;7.90;99.90;;;;;;5134356;27;20399;-78
2022/12/22 15:05:36;;;;;;;14.50;5.35;;;7.80;99.90;;;;;;5134053;28;20051;-76
2022/12/22 15:08:03;;;;;;;12.23;5.63;;;7.80;99.90;;;;;;5133952;28;20490;-76
2022/12/22 15:10:40;;;;;;;13.20;5.68;;;7.80;99.90;;;;;;5134077;28;20100;-75
2022/12/22 15:13:12;;;;;;;14.77;5.70;;;7.80;99.90;;;;;;5134339;28;20087;-78
2022/12/22 15:15:37;;;;;;;12.90;5.88;;;7.90;99.90;;;;;;5134179;28;20047;-74
2022/12/22 15:18:03;;;;;;;13.43;6.05;;;8.10;99.90;;;;;;5133981;28;20043;-77
2022/12/22 15:20:29;;;;;;;13.95;7.88;;;7.70;99.90;;;;;;5134050;28;20511;-74
2022/12/22 15:22:55;;;;;;;10.43;5.53;;;7.70;99.90;;;;;;5134280;28;20487;-75
2022/12/22 15:25:23;;;;;;;13.40;6.13;;;7.60;99.90;;;;;;5134018;28;20046;-75
2022/12/22 15:27:49;;;;;;;12.77;6.00;;;7.60;99.90;;;;;;5133947;28;20100;-75
2022/12/22 15:30:20;;;;;;;13.27;6.47;;;7.60;99.90;;;;;;5134044;28;20035;-75
2022/12/22 15:32:45;;;;;;;19.30;7.25;;;7.50;99.90;;;;;;5133667;28;20790;-75
2022/12/22 15:35:18;;;;;;;15.25;7.10;;;8.30;99.90;;;;;;5133768;28;20166;-76
2022/12/22 15:37:43;;;;;;;21.63;7.93;;;7.50;99.90;;;;;;5133728;28;20096;-75
2022/12/22 15:40:18;;;;;;;16.33;7.72;;;7.50;99.90;;;;;;5133665;28;20039;-76
2022/12/22 15:42:44;;;;;;;14.10;7.90;;;7.50;99.90;;;;;;5137780;27;20368;-75
2022/12/22 15:45:10;;;;;;;13.95;8.38;;;7.40;99.90;;;;;;5137856;27;20065;-76
2022/12/22 15:47:36;;;;;;;13.98;8.80;;;7.40;99.90;;;;;;5137424;27;20475;-76
2022/12/22 15:50:01;;;;;;;13.65;8.00;;;7.50;99.90;;;;;;5138156;27;20081;-76
2022/12/22 15:52:28;;;;;;;18.58;9.18;;;7.50;99.90;;;;;;5137737;27;20039;-74
2022/12/22 15:54:54;;;;;;;15.68;8.35;;;7.50;99.90;;;;;;5137940;27;20082;-74
2022/12/22 15:57:20;;;;;;;15.05;8.07;;;7.50;99.90;;;;;;5137392;27;20055;-76
2022/12/22 15:59:45;;;;;;;15.98;8.30;;;7.50;99.90;;;;;;5137171;27;20042;-74
2022/12/22 16:02:12;;;;;;;19.05;8.13;;;7.50;99.90;;;;;;5137451;27;20039;-74
2022/12/22 16:04:38;;;;;;;15.88;7.97;;;7.50;99.90;;;;;;5137563;27;20062;-73
2022/12/22 16:07:04;;;;;;;17.55;8.77;;;8.10;99.90;;;;;;5137544;27;20043;-77
2022/12/22 16:09:37;;;;;;;19.25;8.65;;;7.60;99.90;;;;;;5137504;27;20039;-75
2022/12/22 16:12:15;;;;;;;18.25;9.10;;;7.50;99.90;;;;;;5137778;27;20047;-75
2022/12/22 16:14:42;;;;;;;18.70;9.68;;;7.50;99.90;;;;;;5119609;27;20043;-75
2022/12/22 16:17:17;;;;;;;17.77;10.43;;;7.50;99.90;;;;;;5137580;27;20042;-76
2022/12/22 16:19:44;;;;;;;19.65;10.27;;;7.60;99.90;;;;;;5137287;27;20105;-75
2022/12/22 16:22:10;;;;;;;;;;;8.00;99.90;;;;;;5137844;27;20126;-75
2022/12/22 16:24:37;;;;;;;22.08;10.27;;;7.60;99.90;;;;;;5137316;27;19930;-75
2022/12/22 16:27:03;;;;;;;18.95;10.18;;;7.60;99.90;;;;;;5136972;27;20043;-75
2022/12/22 16:29:29;;;;;;;22.40;15.88;;;7.60;99.90;;;;;;5137093;27;20482;-76
2022/12/22 16:32:18;;;;;;;20.40;10.77;;;8.00;99.90;;;;;;5137236;27;20050;-73
2022/12/22 16:34:44;;;;;;;20.92;11.25;;;7.60;99.90;;;;;;5137201;27;20047;-76
2022/12/22 16:37:09;;;;;;;21.40;10.93;;;8.40;99.90;;;;;;5137071;27;20050;-74